Alcazar de San Juan, Spain
Current Conditions -  °F | °C
As of 11:00 AM on Sunday 21 Dec 2014 (Local Time) from LEAO Reporting Station
Clear Clear  
Wind Chill:   Ceiling: Unl
Heat Index:   Visibility: 6mi
Dew Point:   Wind: 3mph
Humidity: 100%   Direction: 110°ESE
Pressure: 30.5"   Gusts: NA
Location:  39.39°N, 3.21°W
Report Text: LEAO 211000Z 11003KT CAVOK 05/05 Q1033
Loading
Personal Weather Stations






























Interactive Weather Map New forecast layout! Learn more

10-Day Weather Forecast

Advertisements
Track Severe Weather on mobile